Rockaway Park, New York
Current Conditions -  °F | °C
As of 9:51 PM on Sunday 21 Dec 2014 (Local Time) from KJFK Reporting Station
Overcast Overcast  
Wind Chill: 30°   Ceiling: 1800
Heat Index: 36°   Visibility: 10mi
Dew Point: 30°   Wind: 8mph
Humidity: 79%   Direction: 10°N
Pressure: 30.34"   Gusts: NA
Location:  40.58°N, 73.84°W
Report Text: KJFK 220251Z 01007KT 10SM BKN018 OVC025 02/M01 A3034 RMK AO2 SNE46 SLP272 P0000 60000 T00221011 58003 $
Loading
Personal Weather Stations






























Interactive Weather Map New forecast layout! Learn more

10-Day Weather Forecast

Advertisements
Track Severe Weather on mobile